Aviation Digital Data Service (ADDS)

Output produced by METARs form (0338 UTC 25 July 2014)
found at http://aviationweather.gov/adds/metars/
 
KEWR 250230Z 2503/2606 36008KT P6SM SCT050 BKN250 
     FM251900 18008KT P6SM FEW050 
     FM260200 22006KT P6SM FEW250